sensor_id;sensor_type;location;lat;lon;timestamp;temperature;humidity
58469;DHT22;44257;44.804;10.220;2023-08-01T00:02:10;23.30;97.40
58469;DHT22;44257;44.804;10.220;2023-08-01T00:04:36;23.30;97.40
58469;DHT22;44257;44.804;10.220;2023-08-01T00:07:02;23.30;97.20
58469;DHT22;44257;44.804;10.220;2023-08-01T00:09:28;23.30;97.20
58469;DHT22;44257;44.804;10.220;2023-08-01T00:11:54;23.30;97.30
58469;DHT22;44257;44.804;10.220;2023-08-01T00:14:20;23.30;97.40
58469;DHT22;44257;44.804;10.220;2023-08-01T00:16:50;23.30;97.20
58469;DHT22;44257;44.804;10.220;2023-08-01T00:19:16;23.30;97.20
58469;DHT22;44257;44.804;10.220;2023-08-01T00:21:42;23.30;97.00
58469;DHT22;44257;44.804;10.220;2023-08-01T00:24:07;23.20;97.20
58469;DHT22;44257;44.804;10.220;2023-08-01T00:26:34;23.20;97.10
58469;DHT22;44257;44.804;10.220;2023-08-01T00:29:00;23.10;97.10
58469;DHT22;44257;44.804;10.220;2023-08-01T00:31:26;23.10;97.10
58469;DHT22;44257;44.804;10.220;2023-08-01T00:33:52;23.10;97.20
58469;DHT22;44257;44.804;10.220;2023-08-01T00:36:19;23.00;97.00
58469;DHT22;44257;44.804;10.220;2023-08-01T00:38:45;23.00;96.70
58469;DHT22;44257;44.804;10.220;2023-08-01T00:41:11;23.10;96.60
58469;DHT22;44257;44.804;10.220;2023-08-01T00:43:37;23.10;96.60
58469;DHT22;44257;44.804;10.220;2023-08-01T00:46:05;23.10;96.30
58469;DHT22;44257;44.804;10.220;2023-08-01T00:48:32;23.10;96.10
58469;DHT22;44257;44.804;10.220;2023-08-01T00:50:59;23.10;96.10
58469;DHT22;44257;44.804;10.220;2023-08-01T00:53:26;23.10;96.30
58469;DHT22;44257;44.804;10.220;2023-08-01T00:55:52;23.10;96.30
58469;DHT22;44257;44.804;10.220;2023-08-01T00:58:19;23.00;96.10
58469;DHT22;44257;44.804;10.220;2023-08-01T01:00:47;23.00;96.40
58469;DHT22;44257;44.804;10.220;2023-08-01T01:03:14;22.90;96.40
58469;DHT22;44257;44.804;10.220;2023-08-01T01:05:46;22.80;96.50
58469;DHT22;44257;44.804;10.220;2023-08-01T01:08:13;22.80;96.40
58469;DHT22;44257;44.804;10.220;2023-08-01T01:10:40;22.80;96.50
58469;DHT22;44257;44.804;10.220;2023-08-01T01:13:07;22.70;96.60
58469;DHT22;44257;44.804;10.220;2023-08-01T01:15:34;22.70;96.80
58469;DHT22;44257;44.804;10.220;2023-08-01T01:18:05;22.60;96.70
58469;DHT22;44257;44.804;10.220;2023-08-01T01:20:35;22.50;96.90
58469;DHT22;44257;44.804;10.220;2023-08-01T01:23:03;22.50;97.00
58469;DHT22;44257;44.804;10.220;2023-08-01T01:25:30;22.40;96.80
58469;DHT22;44257;44.804;10.220;2023-08-01T01:27:57;22.40;96.80
58469;DHT22;44257;44.804;10.220;2023-08-01T01:30:24;22.40;96.70
58469;DHT22;44257;44.804;10.220;2023-08-01T01:32:51;22.40;96.60
58469;DHT22;44257;44.804;10.220;2023-08-01T01:35:18;22.40;96.00
58469;DHT22;44257;44.804;10.220;2023-08-01T01:37:43;22.40;95.80
58469;DHT22;44257;44.804;10.220;2023-08-01T01:40:10;22.40;95.90
58469;DHT22;44257;44.804;10.220;2023-08-01T01:42:36;22.40;96.00
58469;DHT22;44257;44.804;10.220;2023-08-01T01:45:02;22.40;96.00
58469;DHT22;44257;44.804;10.220;2023-08-01T01:47:28;22.40;95.60
58469;DHT22;44257;44.804;10.220;2023-08-01T01:49:54;22.40;95.70
58469;DHT22;44257;44.804;10.220;2023-08-01T01:52:21;22.40;95.30
58469;DHT22;44257;44.804;10.220;2023-08-01T01:54:47;22.40;95.40
58469;DHT22;44257;44.804;10.220;2023-08-01T01:57:13;22.40;95.60
58469;DHT22;44257;44.804;10.220;2023-08-01T01:59:39;22.30;95.50
58469;DHT22;44257;44.804;10.220;2023-08-01T02:02:05;22.30;95.40
58469;DHT22;44257;44.804;10.220;2023-08-01T02:04:31;22.30;95.40
58469;DHT22;44257;44.804;10.220;2023-08-01T02:06:57;22.30;95.70
58469;DHT22;44257;44.804;10.220;2023-08-01T02:09:23;22.20;95.50
58469;DHT22;44257;44.804;10.220;2023-08-01T02:11:49;22.10;95.60
58469;DHT22;44257;44.804;10.220;2023-08-01T02:14:15;22.10;95.90
58469;DHT22;44257;44.804;10.220;2023-08-01T02:16:41;22.00;95.90
58469;DHT22;44257;44.804;10.220;2023-08-01T02:19:08;21.90;96.00
58469;DHT22;44257;44.804;10.220;2023-08-01T02:21:34;21.80;96.00
58469;DHT22;44257;44.804;10.220;2023-08-01T02:24:00;21.70;96.40
58469;DHT22;44257;44.804;10.220;2023-08-01T02:26:25;21.60;96.40
58469;DHT22;44257;44.804;10.220;2023-08-01T02:28:51;21.50;96.50
58469;DHT22;44257;44.804;10.220;2023-08-01T02:31:19;21.40;96.70
58469;DHT22;44257;44.804;10.220;2023-08-01T02:33:44;21.30;96.80
58469;DHT22;44257;44.804;10.220;2023-08-01T02:36:10;21.20;96.90
58469;DHT22;44257;44.804;10.220;2023-08-01T02:38:36;21.20;96.90
58469;DHT22;44257;44.804;10.220;2023-08-01T02:41:02;21.10;96.90
58469;DHT22;44257;44.804;10.220;2023-08-01T02:43:28;21.10;96.90
58469;DHT22;44257;44.804;10.220;2023-08-01T02:45:54;21.10;96.90
58469;DHT22;44257;44.804;10.220;2023-08-01T02:48:19;21.10;96.70
58469;DHT22;44257;44.804;10.220;2023-08-01T02:50:46;21.10;96.80
58469;DHT22;44257;44.804;10.220;2023-08-01T02:53:12;21.10;96.90
58469;DHT22;44257;44.804;10.220;2023-08-01T02:55:37;21.00;97.10
58469;DHT22;44257;44.804;10.220;2023-08-01T02:58:04;21.00;97.10
58469;DHT22;44257;44.804;10.220;2023-08-01T03:00:30;21.00;97.20
58469;DHT22;44257;44.804;10.220;2023-08-01T03:02:57;21.00;97.40
58469;DHT22;44257;44.804;10.220;2023-08-01T03:05:22;20.90;97.40
58469;DHT22;44257;44.804;10.220;2023-08-01T03:07:48;20.90;97.50
58469;DHT22;44257;44.804;10.220;2023-08-01T03:10:14;20.90;97.70
58469;DHT22;44257;44.804;10.220;2023-08-01T03:12:40;20.80;97.80
58469;DHT22;44257;44.804;10.220;2023-08-01T03:15:06;20.70;97.90
58469;DHT22;44257;44.804;10.220;2023-08-01T03:17:34;20.70;98.30
58469;DHT22;44257;44.804;10.220;2023-08-01T03:20:01;20.70;98.40
58469;DHT22;44257;44.804;10.220;2023-08-01T03:22:28;20.60;98.40
58469;DHT22;44257;44.804;10.220;2023-08-01T03:24:54;20.60;98.40
58469;DHT22;44257;44.804;10.220;2023-08-01T03:27:21;20.60;98.20
58469;DHT22;44257;44.804;10.220;2023-08-01T03:29:47;20.70;98.20
58469;DHT22;44257;44.804;10.220;2023-08-01T03:32:12;20.80;97.80
58469;DHT22;44257;44.804;10.220;2023-08-01T03:34:38;21.00;97.70
58469;DHT22;44257;44.804;10.220;2023-08-01T03:37:06;21.10;97.60
58469;DHT22;44257;44.804;10.220;2023-08-01T03:39:32;21.20;97.20
58469;DHT22;44257;44.804;10.220;2023-08-01T03:41:58;21.40;96.90
58469;DHT22;44257;44.804;10.220;2023-08-01T03:44:25;21.40;96.60
58469;DHT22;44257;44.804;10.220;2023-08-01T03:46:52;21.60;96.90
58469;DHT22;44257;44.804;10.220;2023-08-01T03:49:19;21.60;96.60
58469;DHT22;44257;44.804;10.220;2023-08-01T03:51:45;21.70;96.50
58469;DHT22;44257;44.804;10.220;2023-08-01T03:54:11;21.70;96.40
58469;DHT22;44257;44.804;10.220;2023-08-01T03:56:37;21.70;96.20
58469;DHT22;44257;44.804;10.220;2023-08-01T03:59:06;21.80;96.20
58469;DHT22;44257;44.804;10.220;2023-08-01T04:01:31;21.90;96.20
58469;DHT22;44257;44.804;10.220;2023-08-01T04:03:57;22.00;95.90
58469;DHT22;44257;44.804;10.220;2023-08-01T04:06:23;21.90;96.00
58469;DHT22;44257;44.804;10.220;2023-08-01T04:08:49;21.90;96.10
58469;DHT22;44257;44.804;10.220;2023-08-01T04:11:15;21.90;96.20
58469;DHT22;44257;44.804;10.220;2023-08-01T04:13:41;21.90;96.20
58469;DHT22;44257;44.804;10.220;2023-08-01T04:16:07;21.90;96.30
58469;DHT22;44257;44.804;10.220;2023-08-01T04:18:32;21.90;96.00
58469;DHT22;44257;44.804;10.220;2023-08-01T04:20:58;21.90;96.40
58469;DHT22;44257;44.804;10.220;2023-08-01T04:23:24;21.90;96.40
58469;DHT22;44257;44.804;10.220;2023-08-01T04:25:50;21.90;96.40
58469;DHT22;44257;44.804;10.220;2023-08-01T04:28:15;21.80;96.60
58469;DHT22;44257;44.804;10.220;2023-08-01T04:30:41;21.80;97.20
58469;DHT22;44257;44.804;10.220;2023-08-01T04:33:07;21.70;97.40
58469;DHT22;44257;44.804;10.220;2023-08-01T04:35:33;21.70;97.70
58469;DHT22;44257;44.804;10.220;2023-08-01T04:37:58;21.60;97.90
58469;DHT22;44257;44.804;10.220;2023-08-01T04:40:24;21.60;98.40
58469;DHT22;44257;44.804;10.220;2023-08-01T04:42:50;21.60;97.90
58469;DHT22;44257;44.804;10.220;2023-08-01T04:45:16;21.70;97.40
58469;DHT22;44257;44.804;10.220;2023-08-01T04:47:42;21.80;97.10
58469;DHT22;44257;44.804;10.220;2023-08-01T04:50:08;22.00;97.00
58469;DHT22;44257;44.804;10.220;2023-08-01T04:52:34;22.20;96.60
58469;DHT22;44257;44.804;10.220;2023-08-01T04:54:59;22.40;96.30
58469;DHT22;44257;44.804;10.220;2023-08-01T04:57:25;22.60;95.90
58469;DHT22;44257;44.804;10.220;2023-08-01T04:59:51;22.80;95.80
58469;DHT22;44257;44.804;10.220;2023-08-01T05:02:17;23.00;95.70
58469;DHT22;44257;44.804;10.220;2023-08-01T05:04:43;23.10;95.30
58469;DHT22;44257;44.804;10.220;2023-08-01T05:07:09;23.30;95.10
58469;DHT22;44257;44.804;10.220;2023-08-01T05:09:34;23.40;95.10
58469;DHT22;44257;44.804;10.220;2023-08-01T05:12:00;23.50;94.80
58469;DHT22;44257;44.804;10.220;2023-08-01T05:14:26;23.60;95.00
58469;DHT22;44257;44.804;10.220;2023-08-01T05:16:52;23.60;94.90
58469;DHT22;44257;44.804;10.220;2023-08-01T05:19:17;23.70;94.70
58469;DHT22;44257;44.804;10.220;2023-08-01T05:21:43;23.80;94.60
58469;DHT22;44257;44.804;10.220;2023-08-01T05:24:09;23.80;94.70
58469;DHT22;44257;44.804;10.220;2023-08-01T05:26:36;23.90;94.70
58469;DHT22;44257;44.804;10.220;2023-08-01T05:29:02;23.90;95.00
58469;DHT22;44257;44.804;10.220;2023-08-01T05:31:28;24.00;94.90
58469;DHT22;44257;44.804;10.220;2023-08-01T05:33:54;24.20;94.90
58469;DHT22;44257;44.804;10.220;2023-08-01T05:36:20;24.40;95.20
58469;DHT22;44257;44.804;10.220;2023-08-01T05:38:45;24.80;95.50
58469;DHT22;44257;44.804;10.220;2023-08-01T05:41:11;25.10;94.90
58469;DHT22;44257;44.804;10.220;2023-08-01T05:43:37;25.30;94.00
58469;DHT22;44257;44.804;10.220;2023-08-01T05:46:03;25.30;95.20
58469;DHT22;44257;44.804;10.220;2023-08-01T05:48:29;25.30;95.00
58469;DHT22;44257;44.804;10.220;2023-08-01T05:50:54;25.30;95.40
58469;DHT22;44257;44.804;10.220;2023-08-01T05:53:21;25.20;95.40
58469;DHT22;44257;44.804;10.220;2023-08-01T05:55:47;25.20;94.90
58469;DHT22;44257;44.804;10.220;2023-08-01T05:58:13;25.30;96.10
58469;DHT22;44257;44.804;10.220;2023-08-01T06:00:39;25.30;94.80
58469;DHT22;44257;44.804;10.220;2023-08-01T06:03:05;25.30;95.40
58469;DHT22;44257;44.804;10.220;2023-08-01T06:05:31;25.30;95.70
58469;DHT22;44257;44.804;10.220;2023-08-01T06:07:57;25.30;94.60
58469;DHT22;44257;44.804;10.220;2023-08-01T06:10:23;25.30;93.80
58469;DHT22;44257;44.804;10.220;2023-08-01T06:12:49;25.30;94.10
58469;DHT22;44257;44.804;10.220;2023-08-01T06:15:18;25.20;94.10
58469;DHT22;44257;44.804;10.220;2023-08-01T06:17:44;25.20;94.20
58469;DHT22;44257;44.804;10.220;2023-08-01T06:20:11;25.10;94.40
58469;DHT22;44257;44.804;10.220;2023-08-01T06:22:37;25.10;94.80
58469;DHT22;44257;44.804;10.220;2023-08-01T06:25:03;25.20;94.20
58469;DHT22;44257;44.804;10.220;2023-08-01T06:27:29;25.30;94.40
58469;DHT22;44257;44.804;10.220;2023-08-01T06:29:54;25.40;94.50
58469;DHT22;44257;44.804;10.220;2023-08-01T06:32:20;25.40;94.60
58469;DHT22;44257;44.804;10.220;2023-08-01T06:34:46;25.50;94.80
58469;DHT22;44257;44.804;10.220;2023-08-01T06:37:12;25.60;96.20
58469;DHT22;44257;44.804;10.220;2023-08-01T06:39:37;25.70;96.70
58469;DHT22;44257;44.804;10.220;2023-08-01T06:42:03;25.80;96.20
58469;DHT22;44257;44.804;10.220;2023-08-01T06:44:29;25.90;96.20
58469;DHT22;44257;44.804;10.220;2023-08-01T06:46:55;26.10;96.00
58469;DHT22;44257;44.804;10.220;2023-08-01T06:49:21;26.10;96.10
58469;DHT22;44257;44.804;10.220;2023-08-01T06:51:47;26.20;95.80
58469;DHT22;44257;44.804;10.220;2023-08-01T06:54:14;26.20;95.60
58469;DHT22;44257;44.804;10.220;2023-08-01T06:56:40;26.30;95.00
58469;DHT22;44257;44.804;10.220;2023-08-01T06:59:06;26.40;94.70
58469;DHT22;44257;44.804;10.220;2023-08-01T07:01:32;26.60;94.20
58469;DHT22;44257;44.804;10.220;2023-08-01T07:03:58;26.70;94.00
58469;DHT22;44257;44.804;10.220;2023-08-01T07:06:24;26.90;94.00
58469;DHT22;44257;44.804;10.220;2023-08-01T07:08:50;27.10;94.50
58469;DHT22;44257;44.804;10.220;2023-08-01T07:11:16;27.20;95.70
58469;DHT22;44257;44.804;10.220;2023-08-01T07:13:42;27.30;95.40
58469;DHT22;44257;44.804;10.220;2023-08-01T07:16:07;27.30;95.00
58469;DHT22;44257;44.804;10.220;2023-08-01T07:18:33;27.40;94.80
58469;DHT22;44257;44.804;10.220;2023-08-01T07:21:03;27.40;95.50
58469;DHT22;44257;44.804;10.220;2023-08-01T07:23:30;27.50;95.40
58469;DHT22;44257;44.804;10.220;2023-08-01T07:25:56;27.70;95.70
58469;DHT22;44257;44.804;10.220;2023-08-01T07:28:21;27.90;95.00
58469;DHT22;44257;44.804;10.220;2023-08-01T07:30:48;28.00;94.20
58469;DHT22;44257;44.804;10.220;2023-08-01T07:33:15;28.10;94.50
58469;DHT22;44257;44.804;10.220;2023-08-01T07:35:41;28.20;94.60
58469;DHT22;44257;44.804;10.220;2023-08-01T07:38:07;28.20;94.30
58469;DHT22;44257;44.804;10.220;2023-08-01T07:40:36;28.30;94.70
58469;DHT22;44257;44.804;10.220;2023-08-01T07:43:02;28.30;94.30
58469;DHT22;44257;44.804;10.220;2023-08-01T07:45:27;28.40;94.60
58469;DHT22;44257;44.804;10.220;2023-08-01T07:47:53;28.50;94.50
58469;DHT22;44257;44.804;10.220;2023-08-01T07:50:19;28.60;94.40
58469;DHT22;44257;44.804;10.220;2023-08-01T07:52:45;28.60;94.30
58469;DHT22;44257;44.804;10.220;2023-08-01T07:55:11;28.70;94.60
58469;DHT22;44257;44.804;10.220;2023-08-01T07:57:36;28.90;94.10
58469;DHT22;44257;44.804;10.220;2023-08-01T08:00:02;29.00;94.20
58469;DHT22;44257;44.804;10.220;2023-08-01T08:02:40;29.20;94.90
58469;DHT22;44257;44.804;10.220;2023-08-01T08:05:06;29.50;94.30
58469;DHT22;44257;44.804;10.220;2023-08-01T08:07:32;29.70;94.10
58469;DHT22;44257;44.804;10.220;2023-08-01T08:09:58;29.90;94.40
58469;DHT22;44257;44.804;10.220;2023-08-01T08:12:24;30.20;93.00
58469;DHT22;44257;44.804;10.220;2023-08-01T08:14:50;30.50;92.90
58469;DHT22;44257;44.804;10.220;2023-08-01T08:17:16;30.70;92.50
58469;DHT22;44257;44.804;10.220;2023-08-01T08:19:41;30.90;91.50
58469;DHT22;44257;44.804;10.220;2023-08-01T08:22:07;31.00;91.10
58469;DHT22;44257;44.804;10.220;2023-08-01T08:24:34;31.00;92.40
58469;DHT22;44257;44.804;10.220;2023-08-01T08:27:00;31.10;91.90
58469;DHT22;44257;44.804;10.220;2023-08-01T08:29:26;31.10;91.40
58469;DHT22;44257;44.804;10.220;2023-08-01T08:31:52;31.10;91.30
58469;DHT22;44257;44.804;10.220;2023-08-01T08:34:18;31.00;90.90
58469;DHT22;44257;44.804;10.220;2023-08-01T08:36:44;31.00;91.20
58469;DHT22;44257;44.804;10.220;2023-08-01T08:39:11;31.00;92.00
58469;DHT22;44257;44.804;10.220;2023-08-01T08:41:41;31.00;91.10
58469;DHT22;44257;44.804;10.220;2023-08-01T08:44:12;30.90;90.90
58469;DHT22;44257;44.804;10.220;2023-08-01T08:46:41;30.90;91.60
58469;DHT22;44257;44.804;10.220;2023-08-01T08:49:09;31.00;91.60
58469;DHT22;44257;44.804;10.220;2023-08-01T08:51:37;31.10;91.20
58469;DHT22;44257;44.804;10.220;2023-08-01T08:54:08;31.30;90.60
58469;DHT22;44257;44.804;10.220;2023-08-01T08:56:34;31.40;89.80
58469;DHT22;44257;44.804;10.220;2023-08-01T08:59:00;31.50;90.40
58469;DHT22;44257;44.804;10.220;2023-08-01T09:01:27;31.70;89.30
58469;DHT22;44257;44.804;10.220;2023-08-01T09:03:53;32.10;90.40
58469;DHT22;44257;44.804;10.220;2023-08-01T09:06:24;32.30;90.10
58469;DHT22;44257;44.804;10.220;2023-08-01T09:09:02;32.30;88.30
58469;DHT22;44257;44.804;10.220;2023-08-01T09:14:06;31.60;87.80
58469;DHT22;44257;44.804;10.220;2023-08-01T09:16:33;31.30;88.00
58469;DHT22;44257;44.804;10.220;2023-08-01T09:18:59;31.10;88.50
58469;DHT22;44257;44.804;10.220;2023-08-01T09:21:25;30.90;88.40
58469;DHT22;44257;44.804;10.220;2023-08-01T09:23:51;30.90;90.40
58469;DHT22;44257;44.804;10.220;2023-08-01T09:26:19;31.10;89.70
58469;DHT22;44257;44.804;10.220;2023-08-01T09:28:57;31.30;89.10
58469;DHT22;44257;44.804;10.220;2023-08-01T09:31:34;31.40;87.80
58469;DHT22;44257;44.804;10.220;2023-08-01T09:34:01;31.50;87.60
58469;DHT22;44257;44.804;10.220;2023-08-01T09:36:31;31.60;88.70
58469;DHT22;44257;44.804;10.220;2023-08-01T09:39:02;31.70;88.00
58469;DHT22;44257;44.804;10.220;2023-08-01T09:41:31;31.90;88.50
58469;DHT22;44257;44.804;10.220;2023-08-01T09:43:57;31.90;88.50
58469;DHT22;44257;44.804;10.220;2023-08-01T09:46:24;31.80;87.80
58469;DHT22;44257;44.804;10.220;2023-08-01T09:48:50;31.80;86.90
58469;DHT22;44257;44.804;10.220;2023-08-01T09:51:17;31.50;85.90
58469;DHT22;44257;44.804;10.220;2023-08-01T09:53:51;31.30;87.10
58469;DHT22;44257;44.804;10.220;2023-08-01T09:56:25;31.20;89.70
58469;DHT22;44257;44.804;10.220;2023-08-01T09:58:53;31.30;89.30
58469;DHT22;44257;44.804;10.220;2023-08-01T10:01:21;31.40;86.80
58469;DHT22;44257;44.804;10.220;2023-08-01T10:03:49;31.40;88.90
58469;DHT22;44257;44.804;10.220;2023-08-01T10:06:22;31.40;89.30
58469;DHT22;44257;44.804;10.220;2023-08-01T10:08:49;31.60;87.60
58469;DHT22;44257;44.804;10.220;2023-08-01T10:11:18;31.70;88.70
58469;DHT22;44257;44.804;10.220;2023-08-01T10:13:46;31.90;87.40
58469;DHT22;44257;44.804;10.220;2023-08-01T10:16:13;32.10;87.60
58469;DHT22;44257;44.804;10.220;2023-08-01T10:18:42;32.30;88.50
58469;DHT22;44257;44.804;10.220;2023-08-01T10:21:17;32.50;85.90
58469;DHT22;44257;44.804;10.220;2023-08-01T10:23:45;32.70;86.20
58469;DHT22;44257;44.804;10.220;2023-08-01T10:26:11;33.00;85.10
58469;DHT22;44257;44.804;10.220;2023-08-01T10:28:40;33.30;83.80
58469;DHT22;44257;44.804;10.220;2023-08-01T10:31:18;33.20;82.00
58469;DHT22;44257;44.804;10.220;2023-08-01T10:33:48;32.90;82.80
58469;DHT22;44257;44.804;10.220;2023-08-01T10:36:31;32.70;82.30
58469;DHT22;44257;44.804;10.220;2023-08-01T10:39:00;32.50;83.70
58469;DHT22;44257;44.804;10.220;2023-08-01T10:41:31;32.30;83.30
58469;DHT22;44257;44.804;10.220;2023-08-01T10:44:12;32.20;83.60
58469;DHT22;44257;44.804;10.220;2023-08-01T10:46:52;32.20;84.40
58469;DHT22;44257;44.804;10.220;2023-08-01T10:49:19;32.20;84.90
58469;DHT22;44257;44.804;10.220;2023-08-01T10:51:48;32.30;85.90
58469;DHT22;44257;44.804;10.220;2023-08-01T10:54:24;32.40;86.60
58469;DHT22;44257;44.804;10.220;2023-08-01T10:56:52;32.50;85.80
58469;DHT22;44257;44.804;10.220;2023-08-01T10:59:26;32.60;85.20
58469;DHT22;44257;44.804;10.220;2023-08-01T11:01:57;32.80;87.10
58469;DHT22;44257;44.804;10.220;2023-08-01T11:04:29;32.90;84.40
58469;DHT22;44257;44.804;10.220;2023-08-01T11:06:55;32.90;82.60
58469;DHT22;44257;44.804;10.220;2023-08-01T11:09:24;32.90;82.40
58469;DHT22;44257;44.804;10.220;2023-08-01T11:11:57;32.90;84.20
58469;DHT22;44257;44.804;10.220;2023-08-01T11:14:32;32.90;83.40
58469;DHT22;44257;44.804;10.220;2023-08-01T11:17:06;33.00;82.10
58469;DHT22;44257;44.804;10.220;2023-08-01T11:19:35;33.00;83.10
58469;DHT22;44257;44.804;10.220;2023-08-01T11:22:13;33.10;82.40
58469;DHT22;44257;44.804;10.220;2023-08-01T11:25:00;33.10;81.60
58469;DHT22;44257;44.804;10.220;2023-08-01T11:27:35;33.20;84.90
58469;DHT22;44257;44.804;10.220;2023-08-01T11:30:07;33.30;81.60
58469;DHT22;44257;44.804;10.220;2023-08-01T11:32:38;33.20;83.30
58469;DHT22;44257;44.804;10.220;2023-08-01T11:35:04;33.10;83.20
58469;DHT22;44257;44.804;10.220;2023-08-01T11:37:40;33.10;82.70
58469;DHT22;44257;44.804;10.220;2023-08-01T11:40:07;33.20;83.60
58469;DHT22;44257;44.804;10.220;2023-08-01T11:42:33;33.20;82.30
58469;DHT22;44257;44.804;10.220;2023-08-01T11:45:12;33.10;82.90
58469;DHT22;44257;44.804;10.220;2023-08-01T11:48:27;33.10;83.50
58469;DHT22;44257;44.804;10.220;2023-08-01T11:50:36;33.20;82.00
58469;DHT22;44257;44.804;10.220;2023-08-01T11:53:06;33.20;82.70
58469;DHT22;44257;44.804;10.220;2023-08-01T11:55:42;33.20;80.00
58469;DHT22;44257;44.804;10.220;2023-08-01T11:58:11;33.10;82.00
58469;DHT22;44257;44.804;10.220;2023-08-01T12:00:43;33.10;82.80
58469;DHT22;44257;44.804;10.220;2023-08-01T12:03:22;33.30;82.00
58469;DHT22;44257;44.804;10.220;2023-08-01T12:05:50;33.60;80.10
58469;DHT22;44257;44.804;10.220;2023-08-01T12:08:18;33.60;79.70
58469;DHT22;44257;44.804;10.220;2023-08-01T12:10:45;33.50;81.80
58469;DHT22;44257;44.804;10.220;2023-08-01T12:13:24;33.50;77.90
58469;DHT22;44257;44.804;10.220;2023-08-01T12:15:52;33.40;80.20
58469;DHT22;44257;44.804;10.220;2023-08-01T12:18:26;33.40;80.90
58469;DHT22;44257;44.804;10.220;2023-08-01T12:20:52;33.60;81.60
58469;DHT22;44257;44.804;10.220;2023-08-01T12:23:18;33.80;80.80
58469;DHT22;44257;44.804;10.220;2023-08-01T12:25:46;33.90;79.00
58469;DHT22;44257;44.804;10.220;2023-08-01T12:28:13;33.70;79.70
58469;DHT22;44257;44.804;10.220;2023-08-01T12:30:45;33.40;79.70
58469;DHT22;44257;44.804;10.220;2023-08-01T12:33:14;33.30;80.00
58469;DHT22;44257;44.804;10.220;2023-08-01T12:35:46;33.30;80.10
58469;DHT22;44257;44.804;10.220;2023-08-01T12:38:14;33.20;80.30
58469;DHT22;44257;44.804;10.220;2023-08-01T12:40:41;33.20;80.90
58469;DHT22;44257;44.804;10.220;2023-08-01T12:43:07;33.30;79.00
58469;DHT22;44257;44.804;10.220;2023-08-01T12:45:32;33.20;79.60
58469;DHT22;44257;44.804;10.220;2023-08-01T12:47:59;33.10;80.10
58469;DHT22;44257;44.804;10.220;2023-08-01T12:50:27;33.10;81.60
58469;DHT22;44257;44.804;10.220;2023-08-01T12:52:59;33.20;80.60
58469;DHT22;44257;44.804;10.220;2023-08-01T12:55:25;33.30;80.50
58469;DHT22;44257;44.804;10.220;2023-08-01T12:57:50;33.40;78.70
58469;DHT22;44257;44.804;10.220;2023-08-01T13:00:19;33.30;79.50
58469;DHT22;44257;44.804;10.220;2023-08-01T13:02:50;33.20;81.30
58469;DHT22;44257;44.804;10.220;2023-08-01T13:05:16;33.10;80.50
58469;DHT22;44257;44.804;10.220;2023-08-01T13:07:52;33.10;81.10
58469;DHT22;44257;44.804;10.220;2023-08-01T13:10:24;33.20;79.40
58469;DHT22;44257;44.804;10.220;2023-08-01T13:12:53;33.20;82.00
58469;DHT22;44257;44.804;10.220;2023-08-01T13:15:33;33.20;78.90
58469;DHT22;44257;44.804;10.220;2023-08-01T13:18:02;33.30;79.80
58469;DHT22;44257;44.804;10.220;2023-08-01T13:20:33;33.30;78.00
58469;DHT22;44257;44.804;10.220;2023-08-01T13:23:03;33.30;79.40
58469;DHT22;44257;44.804;10.220;2023-08-01T13:25:31;33.30;80.20
58469;DHT22;44257;44.804;10.220;2023-08-01T13:27:57;33.30;78.60
58469;DHT22;44257;44.804;10.220;2023-08-01T13:30:26;33.30;78.80
58469;DHT22;44257;44.804;10.220;2023-08-01T13:32:51;33.20;80.00
58469;DHT22;44257;44.804;10.220;2023-08-01T13:35:21;33.10;79.30
58469;DHT22;44257;44.804;10.220;2023-08-01T13:37:46;33.10;80.60
58469;DHT22;44257;44.804;10.220;2023-08-01T13:40:15;33.10;79.90
58469;DHT22;44257;44.804;10.220;2023-08-01T13:42:43;33.10;79.40
58469;DHT22;44257;44.804;10.220;2023-08-01T13:45:09;33.10;80.40
58469;DHT22;44257;44.804;10.220;2023-08-01T13:47:35;33.10;77.80
58469;DHT22;44257;44.804;10.220;2023-08-01T13:50:04;33.00;79.70
58469;DHT22;44257;44.804;10.220;2023-08-01T13:52:33;32.90;78.30
58469;DHT22;44257;44.804;10.220;2023-08-01T13:54:59;32.90;78.70
58469;DHT22;44257;44.804;10.220;2023-08-01T13:57:25;32.90;80.00
58469;DHT22;44257;44.804;10.220;2023-08-01T13:59:51;33.10;77.00
58469;DHT22;44257;44.804;10.220;2023-08-01T14:02:23;33.20;78.30
58469;DHT22;44257;44.804;10.220;2023-08-01T14:04:51;33.40;78.60
58469;DHT22;44257;44.804;10.220;2023-08-01T14:07:23;33.50;78.70
58469;DHT22;44257;44.804;10.220;2023-08-01T14:09:49;33.50;78.40
58469;DHT22;44257;44.804;10.220;2023-08-01T14:12:16;33.50;79.70
58469;DHT22;44257;44.804;10.220;2023-08-01T14:14:48;33.50;78.20
58469;DHT22;44257;44.804;10.220;2023-08-01T14:17:17;33.40;76.80
58469;DHT22;44257;44.804;10.220;2023-08-01T14:19:43;33.10;76.30
58469;DHT22;44257;44.804;10.220;2023-08-01T14:22:09;32.90;78.80
58469;DHT22;44257;44.804;10.220;2023-08-01T14:24:35;32.80;77.50
58469;DHT22;44257;44.804;10.220;2023-08-01T14:27:01;32.80;78.60
58469;DHT22;44257;44.804;10.220;2023-08-01T14:29:27;32.70;78.70
58469;DHT22;44257;44.804;10.220;2023-08-01T14:31:53;32.50;78.00
58469;DHT22;44257;44.804;10.220;2023-08-01T14:34:18;32.30;78.00
58469;DHT22;44257;44.804;10.220;2023-08-01T14:36:44;32.20;78.50
58469;DHT22;44257;44.804;10.220;2023-08-01T14:39:10;32.20;78.50
58469;DHT22;44257;44.804;10.220;2023-08-01T14:41:39;32.30;79.60
58469;DHT22;44257;44.804;10.220;2023-08-01T14:44:07;32.50;78.30
58469;DHT22;44257;44.804;10.220;2023-08-01T14:46:35;32.80;79.50
58469;DHT22;44257;44.804;10.220;2023-08-01T14:49:01;33.10;78.40
58469;DHT22;44257;44.804;10.220;2023-08-01T14:51:27;33.10;76.90
58469;DHT22;44257;44.804;10.220;2023-08-01T14:53:53;33.10;78.10
58469;DHT22;44257;44.804;10.220;2023-08-01T14:56:19;33.10;77.90
58469;DHT22;44257;44.804;10.220;2023-08-01T14:58:45;33.10;75.60
58469;DHT22;44257;44.804;10.220;2023-08-01T15:01:14;33.00;77.30
58469;DHT22;44257;44.804;10.220;2023-08-01T15:03:40;32.90;77.30
58469;DHT22;44257;44.804;10.220;2023-08-01T15:06:07;32.90;77.50
58469;DHT22;44257;44.804;10.220;2023-08-01T15:08:34;33.00;77.10
58469;DHT22;44257;44.804;10.220;2023-08-01T15:11:04;33.00;76.10
58469;DHT22;44257;44.804;10.220;2023-08-01T15:13:30;32.80;77.40
58469;DHT22;44257;44.804;10.220;2023-08-01T15:15:56;32.80;77.80
58469;DHT22;44257;44.804;10.220;2023-08-01T15:18:22;32.90;76.80
58469;DHT22;44257;44.804;10.220;2023-08-01T15:20:48;33.10;78.10